sensor_id;sensor_type;location;lat;lon;timestamp;temperature;humidity
44305;DHT22;30019;50.576;8.568;2023-04-03T00:01:06;4.60;99.90
44305;DHT22;30019;50.576;8.568;2023-04-03T00:03:32;4.70;99.90
44305;DHT22;30019;50.576;8.568;2023-04-03T00:05:58;4.60;99.90
44305;DHT22;30019;50.576;8.568;2023-04-03T00:08:23;4.70;99.90
44305;DHT22;30019;50.576;8.568;2023-04-03T00:10:49;4.70;99.90
44305;DHT22;30019;50.576;8.568;2023-04-03T00:13:15;4.70;99.90
44305;DHT22;30019;50.576;8.568;2023-04-03T00:15:41;4.70;99.90
44305;DHT22;30019;50.576;8.568;2023-04-03T00:18:07;4.70;99.90
44305;DHT22;30019;50.576;8.568;2023-04-03T00:20:33;4.70;99.90
44305;DHT22;30019;50.576;8.568;2023-04-03T00:23:00;4.70;99.90
44305;DHT22;30019;50.576;8.568;2023-04-03T00:25:26;4.70;99.90
44305;DHT22;30019;50.576;8.568;2023-04-03T00:27:52;4.70;99.90
44305;DHT22;30019;50.576;8.568;2023-04-03T00:30:19;4.70;99.90
44305;DHT22;30019;50.576;8.568;2023-04-03T00:32:47;4.70;99.90
44305;DHT22;30019;50.576;8.568;2023-04-03T00:35:12;4.70;99.90
44305;DHT22;30019;50.576;8.568;2023-04-03T00:37:41;4.70;99.90
44305;DHT22;30019;50.576;8.568;2023-04-03T00:40:08;4.60;99.90
44305;DHT22;30019;50.576;8.568;2023-04-03T00:42:36;4.60;99.90
44305;DHT22;30019;50.576;8.568;2023-04-03T00:47:28;4.60;99.90
44305;DHT22;30019;50.576;8.568;2023-04-03T00:49:55;4.60;99.90
44305;DHT22;30019;50.576;8.568;2023-04-03T00:52:23;4.60;99.90
44305;DHT22;30019;50.576;8.568;2023-04-03T00:54:52;4.60;99.90
44305;DHT22;30019;50.576;8.568;2023-04-03T00:57:21;4.60;99.90
44305;DHT22;30019;50.576;8.568;2023-04-03T00:59:49;4.60;99.90
44305;DHT22;30019;50.576;8.568;2023-04-03T01:02:16;4.60;99.90
44305;DHT22;30019;50.576;8.568;2023-04-03T01:04:43;4.60;99.90
44305;DHT22;30019;50.576;8.568;2023-04-03T01:07:15;4.50;99.90
44305;DHT22;30019;50.576;8.568;2023-04-03T01:09:42;4.60;99.90
44305;DHT22;30019;50.576;8.568;2023-04-03T01:12:29;4.50;99.90
44305;DHT22;30019;50.576;8.568;2023-04-03T01:14:57;4.50;99.90
44305;DHT22;30019;50.576;8.568;2023-04-03T01:17:35;4.50;99.90
44305;DHT22;30019;50.576;8.568;2023-04-03T01:20:35;4.50;99.90
44305;DHT22;30019;50.576;8.568;2023-04-03T01:23:24;4.50;99.90
44305;DHT22;30019;50.576;8.568;2023-04-03T01:25:53;4.50;99.90
44305;DHT22;30019;50.576;8.568;2023-04-03T01:28:28;4.50;99.90
44305;DHT22;30019;50.576;8.568;2023-04-03T01:31:12;4.50;99.90
44305;DHT22;30019;50.576;8.568;2023-04-03T01:33:41;4.40;99.90
44305;DHT22;30019;50.576;8.568;2023-04-03T01:36:08;4.40;99.90
44305;DHT22;30019;50.576;8.568;2023-04-03T01:38:34;4.40;99.90
44305;DHT22;30019;50.576;8.568;2023-04-03T01:40:59;4.30;99.90
44305;DHT22;30019;50.576;8.568;2023-04-03T01:43:25;4.30;99.90
44305;DHT22;30019;50.576;8.568;2023-04-03T01:45:51;4.30;99.90
44305;DHT22;30019;50.576;8.568;2023-04-03T01:48:18;4.30;99.90
44305;DHT22;30019;50.576;8.568;2023-04-03T01:50:43;4.20;99.90
44305;DHT22;30019;50.576;8.568;2023-04-03T01:53:10;4.20;99.90
44305;DHT22;30019;50.576;8.568;2023-04-03T01:55:35;4.30;99.90
44305;DHT22;30019;50.576;8.568;2023-04-03T01:58:01;4.20;99.90
44305;DHT22;30019;50.576;8.568;2023-04-03T02:00:26;4.20;99.90
44305;DHT22;30019;50.576;8.568;2023-04-03T02:02:52;4.10;99.90
44305;DHT22;30019;50.576;8.568;2023-04-03T02:05:18;4.10;99.90
44305;DHT22;30019;50.576;8.568;2023-04-03T02:07:43;4.10;99.90
44305;DHT22;30019;50.576;8.568;2023-04-03T02:10:09;4.10;99.90
44305;DHT22;30019;50.576;8.568;2023-04-03T02:12:35;4.00;99.90
44305;DHT22;30019;50.576;8.568;2023-04-03T02:15:00;4.00;99.90
44305;DHT22;30019;50.576;8.568;2023-04-03T02:17:26;4.00;99.90
44305;DHT22;30019;50.576;8.568;2023-04-03T02:19:52;3.90;99.90
44305;DHT22;30019;50.576;8.568;2023-04-03T02:22:18;3.90;99.90
44305;DHT22;30019;50.576;8.568;2023-04-03T02:24:44;3.90;99.90
44305;DHT22;30019;50.576;8.568;2023-04-03T02:27:10;3.90;99.90
44305;DHT22;30019;50.576;8.568;2023-04-03T02:29:35;3.80;99.90
44305;DHT22;30019;50.576;8.568;2023-04-03T02:32:01;3.80;99.90
44305;DHT22;30019;50.576;8.568;2023-04-03T02:34:26;3.70;99.90
44305;DHT22;30019;50.576;8.568;2023-04-03T02:36:52;3.70;99.90
44305;DHT22;30019;50.576;8.568;2023-04-03T02:39:17;3.70;99.90
44305;DHT22;30019;50.576;8.568;2023-04-03T02:41:43;3.70;99.90
44305;DHT22;30019;50.576;8.568;2023-04-03T02:44:10;3.70;99.90
44305;DHT22;30019;50.576;8.568;2023-04-03T02:46:36;3.60;99.90
44305;DHT22;30019;50.576;8.568;2023-04-03T02:49:02;3.50;99.90
44305;DHT22;30019;50.576;8.568;2023-04-03T02:51:27;3.50;99.90
44305;DHT22;30019;50.576;8.568;2023-04-03T02:53:53;3.40;99.90
44305;DHT22;30019;50.576;8.568;2023-04-03T02:56:18;3.30;99.90
44305;DHT22;30019;50.576;8.568;2023-04-03T02:58:45;3.30;99.90
44305;DHT22;30019;50.576;8.568;2023-04-03T03:01:11;3.10;99.90
44305;DHT22;30019;50.576;8.568;2023-04-03T03:03:37;3.10;99.90
44305;DHT22;30019;50.576;8.568;2023-04-03T03:06:20;3.00;99.90
44305;DHT22;30019;50.576;8.568;2023-04-03T03:08:46;2.90;99.90
44305;DHT22;30019;50.576;8.568;2023-04-03T03:11:11;2.80;99.90
44305;DHT22;30019;50.576;8.568;2023-04-03T03:13:37;2.80;99.90
44305;DHT22;30019;50.576;8.568;2023-04-03T03:16:03;2.70;99.90
44305;DHT22;30019;50.576;8.568;2023-04-03T03:18:29;2.70;99.90
44305;DHT22;30019;50.576;8.568;2023-04-03T03:20:56;2.60;99.90
44305;DHT22;30019;50.576;8.568;2023-04-03T03:23:24;2.60;99.90
44305;DHT22;30019;50.576;8.568;2023-04-03T03:25:59;2.60;99.90
44305;DHT22;30019;50.576;8.568;2023-04-03T03:28:25;2.60;99.90
44305;DHT22;30019;50.576;8.568;2023-04-03T03:30:50;2.50;99.90
44305;DHT22;30019;50.576;8.568;2023-04-03T03:33:17;2.50;99.90
44305;DHT22;30019;50.576;8.568;2023-04-03T03:35:43;2.40;99.90
44305;DHT22;30019;50.576;8.568;2023-04-03T03:38:09;2.30;99.90
44305;DHT22;30019;50.576;8.568;2023-04-03T03:40:34;2.20;99.90
44305;DHT22;30019;50.576;8.568;2023-04-03T03:43:00;2.20;99.90
44305;DHT22;30019;50.576;8.568;2023-04-03T03:45:26;2.10;99.90
44305;DHT22;30019;50.576;8.568;2023-04-03T03:47:51;2.00;99.90
44305;DHT22;30019;50.576;8.568;2023-04-03T03:50:17;2.00;99.90
44305;DHT22;30019;50.576;8.568;2023-04-03T03:52:43;1.90;99.90
44305;DHT22;30019;50.576;8.568;2023-04-03T03:55:08;1.90;99.90
44305;DHT22;30019;50.576;8.568;2023-04-03T03:57:34;1.80;99.90
44305;DHT22;30019;50.576;8.568;2023-04-03T04:00:00;1.70;99.90
44305;DHT22;30019;50.576;8.568;2023-04-03T04:02:25;1.70;99.90
44305;DHT22;30019;50.576;8.568;2023-04-03T04:04:51;1.70;99.90
44305;DHT22;30019;50.576;8.568;2023-04-03T04:07:17;1.70;99.90
44305;DHT22;30019;50.576;8.568;2023-04-03T04:09:42;1.60;99.90
44305;DHT22;30019;50.576;8.568;2023-04-03T04:12:08;1.60;99.90
44305;DHT22;30019;50.576;8.568;2023-04-03T04:14:33;1.50;99.90
44305;DHT22;30019;50.576;8.568;2023-04-03T04:16:59;1.50;99.90
44305;DHT22;30019;50.576;8.568;2023-04-03T04:19:24;1.50;99.90
44305;DHT22;30019;50.576;8.568;2023-04-03T04:21:50;1.40;99.90
44305;DHT22;30019;50.576;8.568;2023-04-03T04:24:16;1.40;99.90
44305;DHT22;30019;50.576;8.568;2023-04-03T04:26:41;1.40;99.90
44305;DHT22;30019;50.576;8.568;2023-04-03T04:29:09;1.30;99.90
44305;DHT22;30019;50.576;8.568;2023-04-03T04:31:35;1.30;99.90
44305;DHT22;30019;50.576;8.568;2023-04-03T04:34:01;1.30;99.90
44305;DHT22;30019;50.576;8.568;2023-04-03T04:36:26;1.30;99.90
44305;DHT22;30019;50.576;8.568;2023-04-03T04:38:52;1.30;99.90
44305;DHT22;30019;50.576;8.568;2023-04-03T04:41:20;1.20;99.90
44305;DHT22;30019;50.576;8.568;2023-04-03T04:43:48;1.20;99.90
44305;DHT22;30019;50.576;8.568;2023-04-03T04:46:14;1.20;99.90
44305;DHT22;30019;50.576;8.568;2023-04-03T04:48:39;1.10;99.90
44305;DHT22;30019;50.576;8.568;2023-04-03T04:51:06;1.00;99.90
44305;DHT22;30019;50.576;8.568;2023-04-03T04:53:32;1.10;99.90
44305;DHT22;30019;50.576;8.568;2023-04-03T04:55:58;1.00;99.90
44305;DHT22;30019;50.576;8.568;2023-04-03T04:58:24;1.10;99.90
44305;DHT22;30019;50.576;8.568;2023-04-03T05:00:49;1.10;99.90
44305;DHT22;30019;50.576;8.568;2023-04-03T05:03:15;1.10;99.90
44305;DHT22;30019;50.576;8.568;2023-04-03T05:05:41;1.10;99.90
44305;DHT22;30019;50.576;8.568;2023-04-03T05:08:06;1.00;99.90
44305;DHT22;30019;50.576;8.568;2023-04-03T05:10:33;1.00;99.90
44305;DHT22;30019;50.576;8.568;2023-04-03T05:12:59;1.00;99.90
44305;DHT22;30019;50.576;8.568;2023-04-03T05:15:25;1.00;99.90
44305;DHT22;30019;50.576;8.568;2023-04-03T05:17:50;0.90;99.90
44305;DHT22;30019;50.576;8.568;2023-04-03T05:20:16;0.90;99.90
44305;DHT22;30019;50.576;8.568;2023-04-03T05:22:42;0.90;99.90
44305;DHT22;30019;50.576;8.568;2023-04-03T05:25:08;0.90;99.90
44305;DHT22;30019;50.576;8.568;2023-04-03T05:27:34;1.00;99.90
44305;DHT22;30019;50.576;8.568;2023-04-03T05:30:00;1.00;99.90
44305;DHT22;30019;50.576;8.568;2023-04-03T05:32:25;1.00;99.90
44305;DHT22;30019;50.576;8.568;2023-04-03T05:34:54;1.00;99.90
44305;DHT22;30019;50.576;8.568;2023-04-03T05:37:20;1.00;99.90
44305;DHT22;30019;50.576;8.568;2023-04-03T05:39:46;1.00;99.90
44305;DHT22;30019;50.576;8.568;2023-04-03T05:42:11;1.00;99.90
44305;DHT22;30019;50.576;8.568;2023-04-03T05:44:38;1.00;99.90
44305;DHT22;30019;50.576;8.568;2023-04-03T05:47:04;1.00;99.90
44305;DHT22;30019;50.576;8.568;2023-04-03T05:49:30;1.00;99.90
44305;DHT22;30019;50.576;8.568;2023-04-03T05:51:55;1.00;99.90
44305;DHT22;30019;50.576;8.568;2023-04-03T05:54:26;1.10;99.90
44305;DHT22;30019;50.576;8.568;2023-04-03T05:56:53;1.10;99.90
44305;DHT22;30019;50.576;8.568;2023-04-03T05:59:19;1.10;99.90
44305;DHT22;30019;50.576;8.568;2023-04-03T06:01:45;1.10;99.90
44305;DHT22;30019;50.576;8.568;2023-04-03T06:04:12;1.20;99.90
44305;DHT22;30019;50.576;8.568;2023-04-03T06:06:52;1.20;99.90
44305;DHT22;30019;50.576;8.568;2023-04-03T06:09:21;1.20;99.90
44305;DHT22;30019;50.576;8.568;2023-04-03T06:11:47;1.30;99.90
44305;DHT22;30019;50.576;8.568;2023-04-03T06:14:13;1.30;99.90
44305;DHT22;30019;50.576;8.568;2023-04-03T06:16:39;1.40;99.90
44305;DHT22;30019;50.576;8.568;2023-04-03T06:19:05;1.40;99.90
44305;DHT22;30019;50.576;8.568;2023-04-03T06:21:31;1.40;99.90
44305;DHT22;30019;50.576;8.568;2023-04-03T06:23:57;1.50;99.90
44305;DHT22;30019;50.576;8.568;2023-04-03T06:26:23;1.50;99.90
44305;DHT22;30019;50.576;8.568;2023-04-03T06:28:49;1.50;99.90
44305;DHT22;30019;50.576;8.568;2023-04-03T06:31:14;1.50;99.90
44305;DHT22;30019;50.576;8.568;2023-04-03T06:33:40;1.60;99.90
44305;DHT22;30019;50.576;8.568;2023-04-03T06:36:06;1.60;99.90
44305;DHT22;30019;50.576;8.568;2023-04-03T06:38:35;1.60;99.90
44305;DHT22;30019;50.576;8.568;2023-04-03T06:41:00;1.70;99.90
44305;DHT22;30019;50.576;8.568;2023-04-03T06:43:26;1.70;99.90
44305;DHT22;30019;50.576;8.568;2023-04-03T06:45:52;1.80;99.90
44305;DHT22;30019;50.576;8.568;2023-04-03T06:48:18;2.10;99.90
44305;DHT22;30019;50.576;8.568;2023-04-03T06:50:43;2.10;99.90
44305;DHT22;30019;50.576;8.568;2023-04-03T06:53:09;2.20;99.90
44305;DHT22;30019;50.576;8.568;2023-04-03T06:55:35;2.40;99.90
44305;DHT22;30019;50.576;8.568;2023-04-03T06:58:02;2.50;99.90
44305;DHT22;30019;50.576;8.568;2023-04-03T07:00:29;2.40;99.90
44305;DHT22;30019;50.576;8.568;2023-04-03T07:02:55;2.30;99.90
44305;DHT22;30019;50.576;8.568;2023-04-03T07:05:21;2.40;99.90
44305;DHT22;30019;50.576;8.568;2023-04-03T07:07:47;2.60;99.90
44305;DHT22;30019;50.576;8.568;2023-04-03T07:10:15;2.60;99.90
44305;DHT22;30019;50.576;8.568;2023-04-03T07:12:41;2.50;99.90
44305;DHT22;30019;50.576;8.568;2023-04-03T07:15:07;2.30;99.90
44305;DHT22;30019;50.576;8.568;2023-04-03T07:17:32;2.30;99.90
44305;DHT22;30019;50.576;8.568;2023-04-03T07:19:58;2.40;99.90
44305;DHT22;30019;50.576;8.568;2023-04-03T07:22:23;2.50;99.90
44305;DHT22;30019;50.576;8.568;2023-04-03T07:24:49;2.60;99.90
44305;DHT22;30019;50.576;8.568;2023-04-03T07:27:14;2.70;99.90
44305;DHT22;30019;50.576;8.568;2023-04-03T07:29:40;2.50;99.90
44305;DHT22;30019;50.576;8.568;2023-04-03T07:32:06;2.60;99.90
44305;DHT22;30019;50.576;8.568;2023-04-03T07:34:32;3.00;99.90
44305;DHT22;30019;50.576;8.568;2023-04-03T07:36:58;3.10;99.90
44305;DHT22;30019;50.576;8.568;2023-04-03T07:39:25;3.10;99.90
44305;DHT22;30019;50.576;8.568;2023-04-03T07:41:51;3.30;99.90
44305;DHT22;30019;50.576;8.568;2023-04-03T07:44:17;3.80;99.90
44305;DHT22;30019;50.576;8.568;2023-04-03T07:46:43;4.30;99.90
44305;DHT22;30019;50.576;8.568;2023-04-03T07:49:09;4.50;99.90
44305;DHT22;30019;50.576;8.568;2023-04-03T07:51:34;4.40;99.90
44305;DHT22;30019;50.576;8.568;2023-04-03T07:54:00;4.80;99.90
44305;DHT22;30019;50.576;8.568;2023-04-03T07:56:26;4.80;99.90
44305;DHT22;30019;50.576;8.568;2023-04-03T07:58:51;4.50;99.90
44305;DHT22;30019;50.576;8.568;2023-04-03T08:01:17;4.70;99.90
44305;DHT22;30019;50.576;8.568;2023-04-03T08:03:42;5.00;99.90
44305;DHT22;30019;50.576;8.568;2023-04-03T08:06:09;4.80;99.90
44305;DHT22;30019;50.576;8.568;2023-04-03T08:08:35;4.40;99.90
44305;DHT22;30019;50.576;8.568;2023-04-03T08:11:01;4.70;99.90
44305;DHT22;30019;50.576;8.568;2023-04-03T08:13:28;4.80;99.90
44305;DHT22;30019;50.576;8.568;2023-04-03T08:15:54;4.50;99.90
44305;DHT22;30019;50.576;8.568;2023-04-03T08:18:22;4.30;99.90
44305;DHT22;30019;50.576;8.568;2023-04-03T08:20:50;4.00;99.90
44305;DHT22;30019;50.576;8.568;2023-04-03T08:23:16;3.70;99.90
44305;DHT22;30019;50.576;8.568;2023-04-03T08:25:42;3.50;99.90
44305;DHT22;30019;50.576;8.568;2023-04-03T08:28:09;3.40;99.90
44305;DHT22;30019;50.576;8.568;2023-04-03T08:30:38;3.10;99.90
44305;DHT22;30019;50.576;8.568;2023-04-03T08:33:04;3.30;99.90
44305;DHT22;30019;50.576;8.568;2023-04-03T08:35:30;3.70;99.90
44305;DHT22;30019;50.576;8.568;2023-04-03T08:37:55;3.90;99.90
44305;DHT22;30019;50.576;8.568;2023-04-03T08:40:22;3.60;99.90
44305;DHT22;30019;50.576;8.568;2023-04-03T08:45:25;4.00;99.90
44305;DHT22;30019;50.576;8.568;2023-04-03T08:47:55;4.20;99.90
44305;DHT22;30019;50.576;8.568;2023-04-03T08:50:33;4.40;99.90
44305;DHT22;30019;50.576;8.568;2023-04-03T08:53:02;4.50;99.90
44305;DHT22;30019;50.576;8.568;2023-04-03T08:55:37;4.60;99.90
44305;DHT22;30019;50.576;8.568;2023-04-03T08:58:09;4.40;99.90
44305;DHT22;30019;50.576;8.568;2023-04-03T09:00:54;4.40;99.90
44305;DHT22;30019;50.576;8.568;2023-04-03T09:03:22;4.40;99.90
44305;DHT22;30019;50.576;8.568;2023-04-03T09:06:49;4.70;99.90
44305;DHT22;30019;50.576;8.568;2023-04-03T09:08:44;5.40;99.90
44305;DHT22;30019;50.576;8.568;2023-04-03T09:13:54;5.60;99.90
44305;DHT22;30019;50.576;8.568;2023-04-03T09:16:51;5.50;99.90
44305;DHT22;30019;50.576;8.568;2023-04-03T09:19:39;5.50;99.90
44305;DHT22;30019;50.576;8.568;2023-04-03T09:22:27;5.40;99.90
44305;DHT22;30019;50.576;8.568;2023-04-03T09:25:05;5.00;99.90
44305;DHT22;30019;50.576;8.568;2023-04-03T09:27:34;4.90;99.90
44305;DHT22;30019;50.576;8.568;2023-04-03T09:29:59;5.20;99.90
44305;DHT22;30019;50.576;8.568;2023-04-03T09:34:54;5.60;99.90
44305;DHT22;30019;50.576;8.568;2023-04-03T09:37:39;5.70;99.90
44305;DHT22;30019;50.576;8.568;2023-04-03T09:40:11;5.20;99.90
44305;DHT22;30019;50.576;8.568;2023-04-03T09:42:53;5.10;99.90
44305;DHT22;30019;50.576;8.568;2023-04-03T09:45:35;4.70;99.90
44305;DHT22;30019;50.576;8.568;2023-04-03T09:53:47;4.80;99.90
44305;DHT22;30019;50.576;8.568;2023-04-03T09:58:43;6.40;99.90
44305;DHT22;30019;50.576;8.568;2023-04-03T10:04:09;6.90;99.90
44305;DHT22;30019;50.576;8.568;2023-04-03T10:06:41;7.60;99.90
44305;DHT22;30019;50.576;8.568;2023-04-03T10:12:05;7.40;97.40
44305;DHT22;30019;50.576;8.568;2023-04-03T10:14:36;7.70;97.30
44305;DHT22;30019;50.576;8.568;2023-04-03T10:17:10;7.60;98.00
44305;DHT22;30019;50.576;8.568;2023-04-03T10:19:45;7.70;97.40
44305;DHT22;30019;50.576;8.568;2023-04-03T10:22:41;7.20;97.80
44305;DHT22;30019;50.576;8.568;2023-04-03T10:27:42;8.20;99.10
44305;DHT22;30019;50.576;8.568;2023-04-03T10:38:08;8.20;94.30
44305;DHT22;30019;50.576;8.568;2023-04-03T10:43:09;8.60;93.70
44305;DHT22;30019;50.576;8.568;2023-04-03T10:45:51;8.50;92.50
44305;DHT22;30019;50.576;8.568;2023-04-03T10:56:47;9.70;93.60
44305;DHT22;30019;50.576;8.568;2023-04-03T10:59:47;9.50;92.30
44305;DHT22;30019;50.576;8.568;2023-04-03T11:02:30;9.30;91.00
44305;DHT22;30019;50.576;8.568;2023-04-03T11:05:02;8.30;91.20
44305;DHT22;30019;50.576;8.568;2023-04-03T11:07:36;9.30;94.60
44305;DHT22;30019;50.576;8.568;2023-04-03T11:10:17;9.70;91.80
44305;DHT22;30019;50.576;8.568;2023-04-03T11:12:52;8.70;91.60
44305;DHT22;30019;50.576;8.568;2023-04-03T11:15:20;7.60;90.10
44305;DHT22;30019;50.576;8.568;2023-04-03T11:18:02;7.20;92.20
44305;DHT22;30019;50.576;8.568;2023-04-03T11:20:30;7.00;91.90
44305;DHT22;30019;50.576;8.568;2023-04-03T11:23:05;7.20;92.70
44305;DHT22;30019;50.576;8.568;2023-04-03T11:25:34;7.20;91.20
44305;DHT22;30019;50.576;8.568;2023-04-03T11:28:05;7.30;91.10
44305;DHT22;30019;50.576;8.568;2023-04-03T11:30:49;7.30;90.30
44305;DHT22;30019;50.576;8.568;2023-04-03T11:33:24;8.00;90.40
44305;DHT22;30019;50.576;8.568;2023-04-03T11:35:57;8.60;89.30
44305;DHT22;30019;50.576;8.568;2023-04-03T11:38:30;8.60;88.70
44305;DHT22;30019;50.576;8.568;2023-04-03T11:41:00;9.00;92.00
44305;DHT22;30019;50.576;8.568;2023-04-03T11:43:28;9.60;88.70
44305;DHT22;30019;50.576;8.568;2023-04-03T11:46:05;9.40;91.30
44305;DHT22;30019;50.576;8.568;2023-04-03T11:53:40;10.80;92.20
44305;DHT22;30019;50.576;8.568;2023-04-03T12:01:53;8.30;84.60
44305;DHT22;30019;50.576;8.568;2023-04-03T12:04:22;7.50;91.10
44305;DHT22;30019;50.576;8.568;2023-04-03T12:09:26;8.90;92.30
44305;DHT22;30019;50.576;8.568;2023-04-03T12:11:53;9.60;88.10
44305;DHT22;30019;50.576;8.568;2023-04-03T12:14:22;9.60;85.30
44305;DHT22;30019;50.576;8.568;2023-04-03T12:16:49;9.80;88.40
44305;DHT22;30019;50.576;8.568;2023-04-03T12:19:36;10.70;86.10
44305;DHT22;30019;50.576;8.568;2023-04-03T12:22:07;10.80;83.00
44305;DHT22;30019;50.576;8.568;2023-04-03T12:24:38;11.00;82.30
44305;DHT22;30019;50.576;8.568;2023-04-03T12:32:51;9.60;81.70
44305;DHT22;30019;50.576;8.568;2023-04-03T12:35:24;9.20;86.00
44305;DHT22;30019;50.576;8.568;2023-04-03T12:38:17;9.90;88.50
44305;DHT22;30019;50.576;8.568;2023-04-03T12:40:51;10.40;81.70
44305;DHT22;30019;50.576;8.568;2023-04-03T12:43:52;10.00;83.20
44305;DHT22;30019;50.576;8.568;2023-04-03T12:46:21;9.90;86.80
44305;DHT22;30019;50.576;8.568;2023-04-03T12:48:51;10.50;88.20
44305;DHT22;30019;50.576;8.568;2023-04-03T12:51:40;11.10;81.00
44305;DHT22;30019;50.576;8.568;2023-04-03T12:54:23;11.10;82.20
44305;DHT22;30019;50.576;8.568;2023-04-03T12:56:51;11.10;82.40
44305;DHT22;30019;50.576;8.568;2023-04-03T12:59:20;10.40;82.10
44305;DHT22;30019;50.576;8.568;2023-04-03T13:01:56;9.70;86.20
44305;DHT22;30019;50.576;8.568;2023-04-03T13:04:23;9.30;86.60
44305;DHT22;30019;50.576;8.568;2023-04-03T13:06:49;9.00;91.10
44305;DHT22;30019;50.576;8.568;2023-04-03T13:09:28;8.50;89.90
44305;DHT22;30019;50.576;8.568;2023-04-03T13:12:00;7.90;89.10
44305;DHT22;30019;50.576;8.568;2023-04-03T13:14:27;7.60;91.40
44305;DHT22;30019;50.576;8.568;2023-04-03T13:17:10;7.80;91.40
44305;DHT22;30019;50.576;8.568;2023-04-03T13:19:38;8.90;89.70
44305;DHT22;30019;50.576;8.568;2023-04-03T13:24:49;9.60;84.80
44305;DHT22;30019;50.576;8.568;2023-04-03T13:27:16;9.70;84.30
44305;DHT22;30019;50.576;8.568;2023-04-03T13:29:43;9.80;82.80
44305;DHT22;30019;50.576;8.568;2023-04-03T13:32:18;9.70;87.60
44305;DHT22;30019;50.576;8.568;2023-04-03T13:34:44;9.90;83.60
44305;DHT22;30019;50.576;8.568;2023-04-03T13:37:52;10.00;84.50
44305;DHT22;30019;50.576;8.568;2023-04-03T13:40:18;10.40;87.20
44305;DHT22;30019;50.576;8.568;2023-04-03T13:42:44;10.60;85.10
44305;DHT22;30019;50.576;8.568;2023-04-03T13:45:18;10.50;82.60
44305;DHT22;30019;50.576;8.568;2023-04-03T13:47:47;10.20;83.70
44305;DHT22;30019;50.576;8.568;2023-04-03T13:50:20;9.10;85.00
44305;DHT22;30019;50.576;8.568;2023-04-03T13:53:08;8.70;89.20
44305;DHT22;30019;50.576;8.568;2023-04-03T13:56:04;8.70;85.10
44305;DHT22;30019;50.576;8.568;2023-04-03T13:58:32;7.70;85.50
44305;DHT22;30019;50.576;8.568;2023-04-03T14:01:20;7.70;88.80
44305;DHT22;30019;50.576;8.568;2023-04-03T14:03:59;7.60;90.10
44305;DHT22;30019;50.576;8.568;2023-04-03T14:06:25;8.00;90.10
44305;DHT22;30019;50.576;8.568;2023-04-03T14:08:51;8.40;89.70
44305;DHT22;30019;50.576;8.568;2023-04-03T14:11:24;8.60;88.40
44305;DHT22;30019;50.576;8.568;2023-04-03T14:13:53;8.30;88.10
44305;DHT22;30019;50.576;8.568;2023-04-03T14:16:21;7.90;88.80
44305;DHT22;30019;50.576;8.568;2023-04-03T14:18:49;8.10;85.70
44305;DHT22;30019;50.576;8.568;2023-04-03T14:21:16;8.10;86.60
44305;DHT22;30019;50.576;8.568;2023-04-03T14:23:44;8.60;88.90
44305;DHT22;30019;50.576;8.568;2023-04-03T14:26:19;9.00;87.10
44305;DHT22;30019;50.576;8.568;2023-04-03T14:28:48;9.50;83.80
44305;DHT22;30019;50.576;8.568;2023-04-03T14:31:15;9.00;84.30
44305;DHT22;30019;50.576;8.568;2023-04-03T14:33:41;8.70;87.00
44305;DHT22;30019;50.576;8.568;2023-04-03T14:36:15;8.90;84.70
44305;DHT22;30019;50.576;8.568;2023-04-03T14:38:42;9.10;87.90
44305;DHT22;30019;50.576;8.568;2023-04-03T14:41:12;8.90;83.10
44305;DHT22;30019;50.576;8.568;2023-04-03T14:43:38;8.20;82.80
44305;DHT22;30019;50.576;8.568;2023-04-03T14:46:04;8.20;85.00
44305;DHT22;30019;50.576;8.568;2023-04-03T14:48:31;8.80;84.80
44305;DHT22;30019;50.576;8.568;2023-04-03T14:50:56;9.50;83.10
44305;DHT22;30019;50.576;8.568;2023-04-03T14:53:22;10.10;82.80
44305;DHT22;30019;50.576;8.568;2023-04-03T14:55:51;10.40;83.80
44305;DHT22;30019;50.576;8.568;2023-04-03T14:58:19;10.70;82.30
44305;DHT22;30019;50.576;8.568;2023-04-03T15:00:45;10.40;80.30
44305;DHT22;30019;50.576;8.568;2023-04-03T15:03:19;9.60;81.50
44305;DHT22;30019;50.576;8.568;2023-04-03T15:05:46;8.80;82.20
44305;DHT22;30019;50.576;8.568;2023-04-03T15:08:22;8.20;84.40
44305;DHT22;30019;50.576;8.568;2023-04-03T15:10:49;8.30;88.00
44305;DHT22;30019;50.576;8.568;2023-04-03T15:13:15;8.40;86.20
44305;DHT22;30019;50.576;8.568;2023-04-03T15:15:41;8.40;86.50
44305;DHT22;30019;50.576;8.568;2023-04-03T15:18:09;9.10;88.20
44305;DHT22;30019;50.576;8.568;2023-04-03T15:20:35;9.40;83.20
44305;DHT22;30019;50.576;8.568;2023-04-03T15:23:01;9.40;81.60
44305;DHT22;30019;50.576;8.568;2023-04-03T15:25:27;9.30;81.60
44305;DHT22;30019;50.576;8.568;2023-04-03T15:27:56;9.40;81.40
44305;DHT22;30019;50.576;8.568;2023-04-03T15:30:22;9.10;82.50
44305;DHT22;30019;50.576;8.568;2023-04-03T15:32:48;8.50;83.40
44305;DHT22;30019;50.576;8.568;2023-04-03T15:35:14;8.40;84.90
44305;DHT22;30019;50.576;8.568;2023-04-03T15:37:40;8.40;87.60
44305;DHT22;30019;50.576;8.568;2023-04-03T15:40:07;8.30;86.50
44305;DHT22;30019;50.576;8.568;2023-04-03T15:42:33;7.90;85.30
44305;DHT22;30019;50.576;8.568;2023-04-03T15:44:59;7.90;85.90
44305;DHT22;30019;50.576;8.568;2023-04-03T15:47:25;7.70;87.20
44305;DHT22;30019;50.576;8.568;2023-04-03T15:49:52;7.70;87.70
44305;DHT22;30019;50.576;8.568;2023-04-03T15:52:18;7.60;87.20
44305;DHT22;30019;50.576;8.568;2023-04-03T15:54:44;7.50;89.50
44305;DHT22;30019;50.576;8.568;2023-04-03T15:57:09;7.30;87.50
44305;DHT22;30019;50.576;8.568;2023-04-03T15:59:35;7.20;90.00
44305;DHT22;30019;50.576;8.568;2023-04-03T16:02:01;7.20;89.00
44305;DHT22;30019;50.576;8.568;2023-04-03T16:04:29;7.10;90.60
44305;DHT22;30019;50.576;8.568;2023-04-03T16:06:55;7.00;89.40
44305;DHT22;30019;50.576;8.568;2023-04-03T16:09:21;7.20;89.40
44305;DHT22;30019;50.576;8.568;2023-04-03T16:11:46;7.20;89.00
44305;DHT22;30019;50.576;8.568;2023-04-03T16:14:12;7.20;89.60
44305;DHT22;30019;50.576;8.568;2023-04-03T16:16:38;7.20;88.70
44305;DHT22;30019;50.576;8.568;2023-04-03T16:19:04;7.10;90.90
44305;DHT22;30019;50.576;8.568;2023-04-03T16:21:31;7.10;88.50
44305;DHT22;30019;50.576;8.568;2023-04-03T16:23:58;7.00;89.60
44305;DHT22;30019;50.576;8.568;2023-04-03T16:26:23;7.10;90.30
44305;DHT22;30019;50.576;8.568;2023-04-03T16:28:49;7.00;89.30
44305;DHT22;30019;50.576;8.568;2023-04-03T16:31:15;7.00;89.60
44305;DHT22;30019;50.576;8.568;2023-04-03T16:33:41;6.90;90.00
44305;DHT22;30019;50.576;8.568;2023-04-03T16:36:06;6.90;91.40
44305;DHT22;30019;50.576;8.568;2023-04-03T16:38:32;6.90;91.10
44305;DHT22;30019;50.576;8.568;2023-04-03T16:40:58;6.90;90.90
44305;DHT22;30019;50.576;8.568;2023-04-03T16:43:26;6.90;91.40
44305;DHT22;30019;50.576;8.568;2023-04-03T16:45:51;7.00;91.60
44305;DHT22;30019;50.576;8.568;2023-04-03T16:48:17;6.90;91.20
44305;DHT22;30019;50.576;8.568;2023-04-03T16:50:46;6.60;91.10
44305;DHT22;30019;50.576;8.568;2023-04-03T16:53:13;6.50;91.00
44305;DHT22;30019;50.576;8.568;2023-04-03T16:55:39;6.40;91.30
44305;DHT22;30019;50.576;8.568;2023-04-03T16:58:05;6.30;90.80
44305;DHT22;30019;50.576;8.568;2023-04-03T17:00:31;6.30;91.10
44305;DHT22;30019;50.576;8.568;2023-04-03T17:02:57;6.30;91.20